Red River — WDG8366 — position and weather

sailwx.info

Track history (hours):
 
Tides and Currents Weather Stations Pressure Air Temp Water Temp Dewpoint Dewpoint Depression Visibility Wind Speed Wind Dir Waves Ship Positions

Red River

Owner: Higman Barge Lines, Inc, Orange, TX. More information available from US FCC via Universal Licensing System and Coast Guard Vessel Documentation Center.

Last reported at 2018-Jun-25 04:00 UTC. Time now 2018-Jun-25 04:26 UTC.
Position N 29°48' W 092°15'.

Length 115 m; draft 2.6 m.

Type: Towing. MMSI: 367576750.

Date/timePositionNaut miles runAvg speedWind from/ knotsBaromVisibWave heightAir tempDewpointWater temp
2018-Jun-25 04:00N 29°48' W 092°15'0 0.0
2018-Jun-25 03:30N 29°48' W 092°15'0 0.0
2018-Jun-25 03:00N 29°48' W 092°15'0 0.0
2018-Jun-25 02:30N 29°48' W 092°15'0 0.5
2018-Jun-25 02:00N 29°48' W 092°15'2 3.3
2018-Jun-25 01:30N 29°49' W 092°17'2 3.5
2018-Jun-25 01:00N 29°50' W 092°19'1 1.8
2018-Jun-25 00:25N 29°50' W 092°20'37 4.6
2018-Jun-24 16:18N 29°56' W 093°02'2 4.9
2018-Jun-24 15:59N 29°56' W 093°04'2 3.6
2018-Jun-24 15:30N 29°56' W 093°06'2 3.4
2018-Jun-24 15:00N 29°56' W 093°08'2 4.1
2018-Jun-24 14:30N 29°57' W 093°10'2 4.3
2018-Jun-24 14:00N 29°59' W 093°12'2 4.1
2018-Jun-24 13:30N 30°00' W 093°14'2 3.6
2018-Jun-24 13:00N 30°02' W 093°14'2 3.1
2018-Jun-24 12:30N 30°03' W 093°16'2 3.6
2018-Jun-24 12:00N 30°04' W 093°16'1 2.7
2018-Jun-24 11:30N 30°05' W 093°18'1 1.9
2018-Jun-24 11:00N 30°06' W 093°18'0 0.8
2018-Jun-24 10:30N 30°06' W 093°19'0 0.2
2018-Jun-24 10:00N 30°06' W 093°19'0 0.0
2018-Jun-24 09:30N 30°06' W 093°19'0 0.0
2018-Jun-24 09:00N 30°06' W 093°19'0 0.0
2018-Jun-24 08:30N 30°06' W 093°19'0 0.0
2018-Jun-24 08:00N 30°06' W 093°19'0 0.0
2018-Jun-24 07:30N 30°06' W 093°19'0 0.0
2018-Jun-24 07:00N 30°06' W 093°19'0 0.0
2018-Jun-24 06:30N 30°06' W 093°19'0 0.2
2018-Jun-24 06:00N 30°06' W 093°19'1 2.8
2018-Jun-24 05:30N 30°05' W 093°20'2 4.1
2018-Jun-24 05:00N 30°04' W 093°21'2 3.0
2018-Jun-24 04:30N 30°04' W 093°23'0 0.0
2018-Jun-24 04:00N 30°04' W 093°23'0 0.0
2018-Jun-24 03:30N 30°04' W 093°23'0 0.0
2018-Jun-24 03:00N 30°04' W 093°23'0 0.0
2018-Jun-24 02:30N 30°04' W 093°23'0 0.0
2018-Jun-24 02:00N 30°04' W 093°23'0 0.0
2018-Jun-24 01:30N 30°04' W 093°23'0 0.0
2018-Jun-24 01:00N 30°04' W 093°23'0 0.0
2018-Jun-24 00:30N 30°04' W 093°23'0 0.0
2018-Jun-23 23:58N 30°04' W 093°23'0 0.0
2018-Jun-23 23:30N 30°04' W 093°23'0 0.0
2018-Jun-23 23:00N 30°04' W 093°23'0 0.0
2018-Jun-23 22:30N 30°04' W 093°23'0 0.0
2018-Jun-23 22:00N 30°04' W 093°23'0 0.0
2018-Jun-23 21:30N 30°04' W 093°23'1 2.8
2018-Jun-23 21:00N 30°04' W 093°25'0 0.2
2018-Jun-23 20:30N 30°04' W 093°25'0 0.0
2018-Jun-23 19:57N 30°04' W 093°25'0 0.0
2018-Jun-23 19:30N 30°04' W 093°25'0 0.0
2018-Jun-23 19:00N 30°04' W 093°25'0 0.0
2018-Jun-23 18:30N 30°04' W 093°25'0 0.0
2018-Jun-23 18:00N 30°04' W 093°25'0 0.0
2018-Jun-23 17:30N 30°04' W 093°25'0 0.0
2018-Jun-23 17:00N 30°04' W 093°25'0 0.0
2018-Jun-23 16:30N 30°04' W 093°25'0 0.0
2018-Jun-23 15:59N 30°04' W 093°25'0 0.0
2018-Jun-23 15:30N 30°04' W 093°25'0 0.0
2018-Jun-23 15:00N 30°04' W 093°25'0 0.1
2018-Jun-23 14:30N 30°04' W 093°25'2 3.2
2018-Jun-23 14:00N 30°04' W 093°27'0 0.7
2018-Jun-23 13:30N 30°04' W 093°27'2 4.1
2018-Jun-23 13:00N 30°04' W 093°30'3 5.2
2018-Jun-23 12:30N 30°04' W 093°33'3 5.3
2018-Jun-23 12:00N 30°04' W 093°36'3 5.7
2018-Jun-23 11:30N 30°04' W 093°39'3 5.8
2018-Jun-23 11:00N 30°03' W 093°42'1 2.3
2018-Jun-23 10:30N 30°03' W 093°44'1 1.3
2018-Jun-23 10:00N 30°02' W 093°44'3 5.2
2018-Jun-23 09:30N 30°00' W 093°46'3 6.3
2018-Jun-23 09:00N 29°59' W 093°49'3 5.0
2018-Jun-23 08:30N 29°57' W 093°52'4 7.1
2018-Jun-23 08:00N 29°54' W 093°54'4 7.0
2018-Jun-23 07:30N 29°52' W 093°56'3 6.0
2018-Jun-23 07:00N 29°49' W 093°58'2 4.5
2018-Jun-23 06:30N 29°48' W 094°00'3 5.3
2018-Jun-23 06:00N 29°46' W 094°03'3 5.2
2018-Jun-23 05:30N 29°45' W 094°05'3 5.5
2018-Jun-23 05:00N 29°43' W 094°07'3 5.3
2018-Jun-23 04:29N 29°41' W 094°10'2 5.2
2018-Jun-23 04:00N 29°40' W 094°13'3 5.0
2018-Jun-23 03:30N 29°39' W 094°15'3 5.0
2018-Jun-23 03:00N 29°38' W 094°18'2 4.9
2018-Jun-23 02:30N 29°37' W 094°20'2 4.8
2018-Jun-23 02:00N 29°36' W 094°23'2 3.9
2018-Jun-23 01:30N 29°35' W 094°25'2 3.5
2018-Jun-23 01:00N 29°34' W 094°26'2 4.1
2018-Jun-23 00:29N 29°33' W 094°28'2 4.5
2018-Jun-22 23:56N 29°31' W 094°31'13 5.0
2018-Jun-22 21:15N 29°25' W 094°44'2 4.5
2018-Jun-22 20:53N 29°24' W 094°46'3 6.0
2018-Jun-22 20:28N 29°22' W 094°48'3 7.1
2018-Jun-22 20:00N 29°20' W 094°51'3 6.6
2018-Jun-22 19:30N 29°18' W 094°53'3 5.5
2018-Jun-22 19:00N 29°17' W 094°56'3 5.6
2018-Jun-22 18:30N 29°16' W 094°59'3 5.8
2018-Jun-22 18:00N 29°14' W 095°02'3 5.5
2018-Jun-22 17:30N 29°12' W 095°04'3 5.7
2018-Jun-22 17:00N 29°10' W 095°07'2 3.3
2018-Jun-22 16:30N 29°11' W 095°08'2 4.3
2018-Jun-22 16:00N 29°12' W 095°10'2 3.5
2018-Jun-22 15:30N 29°13' W 095°12'0 1.0
2018-Jun-22 15:00N 29°13' W 095°13'1 1.5
2018-Jun-22 14:30N 29°14' W 095°13'1 1.8
2018-Jun-22 14:00N 29°15' W 095°13'0 0.1
2018-Jun-22 13:29N 29°14' W 095°13'0 0.1
2018-Jun-22 13:00N 29°14' W 095°13'1 1.2
2018-Jun-22 12:30N 29°14' W 095°13'1 1.6
2018-Jun-22 12:00N 29°15' W 095°13'0 0.1
2018-Jun-22 11:30N 29°15' W 095°13'0 0.0
2018-Jun-22 11:00N 29°15' W 095°13'0 0.0
2018-Jun-22 10:30N 29°15' W 095°13'0 0.0
2018-Jun-22 10:00N 29°15' W 095°13'0 0.0
2018-Jun-22 09:29N 29°15' W 095°13'0 0.0
2018-Jun-22 09:00N 29°15' W 095°13'0 0.0
2018-Jun-22 08:30N 29°15' W 095°13'0 0.0
2018-Jun-22 08:00N 29°15' W 095°13'0 0.0
2018-Jun-22 07:30N 29°15' W 095°13'0 0.0
2018-Jun-22 07:00N 29°15' W 095°13'0 0.0
2018-Jun-22 06:30N 29°15' W 095°13'0 0.0
2018-Jun-22 06:00N 29°15' W 095°13'0 0.0
2018-Jun-22 05:30N 29°15' W 095°13'0 0.0
2018-Jun-22 05:00N 29°15' W 095°13'0 0.2
2018-Jun-22 04:30N 29°15' W 095°13'0 0.0
2018-Jun-22 03:59N 29°15' W 095°13'0 0.0
2018-Jun-22 03:30N 29°15' W 095°13'0 0.0
2018-Jun-22 03:00N 29°15' W 095°13'0 0.0
2018-Jun-22 02:30N 29°15' W 095°13'0 0.0
2018-Jun-22 02:00N 29°15' W 095°13'0 0.0
2018-Jun-22 01:30N 29°15' W 095°13'0 0.0
2018-Jun-22 01:00N 29°15' W 095°13'0 0.0
2018-Jun-22 00:30N 29°15' W 095°13'0 0.0
2018-Jun-22 00:00N 29°15' W 095°13'0 0.0
2018-Jun-21 23:30N 29°15' W 095°13'0 0.0
2018-Jun-21 23:00N 29°15' W 095°13'0 0.0
2018-Jun-21 22:30N 29°15' W 095°13'0 0.0
2018-Jun-21 22:00N 29°15' W 095°13'0 0.0
2018-Jun-21 21:30N 29°15' W 095°13'0 0.0
2018-Jun-21 21:00N 29°15' W 095°13'1 1.0
2018-Jun-21 20:30N 29°14' W 095°13'0 0.8
2018-Jun-21 20:00N 29°14' W 095°13'0 0.4
2018-Jun-21 19:31N 29°15' W 095°13'0 0.0
2018-Jun-21 19:00N 29°15' W 095°13'0 0.0
2018-Jun-21 18:30N 29°15' W 095°13'0 0.0
2018-Jun-21 18:00N 29°15' W 095°13'0 0.0
2018-Jun-21 17:30N 29°15' W 095°13'0 0.0
2018-Jun-21 16:59N 29°15' W 095°13'0 0.0
2018-Jun-21 16:30N 29°15' W 095°13'0 0.0
2018-Jun-21 16:00N 29°15' W 095°13'0 0.0
2018-Jun-21 15:30N 29°15' W 095°13'0 0.0
2018-Jun-21 15:00N 29°15' W 095°13'0 0.0
2018-Jun-21 14:30N 29°15' W 095°13'0 0.0
2018-Jun-21 14:00N 29°15' W 095°13'0 0.0
2018-Jun-21 13:30N 29°15' W 095°13'0 0.0
2018-Jun-21 13:00N 29°15' W 095°13'0 0.0
2018-Jun-21 12:30N 29°15' W 095°13'0 0.0
2018-Jun-21 12:00N 29°15' W 095°13'0 0.2
2018-Jun-21 11:30N 29°15' W 095°13'0 0.0
2018-Jun-21 11:00N 29°15' W 095°13'0 0.0
2018-Jun-21 10:28N 29°15' W 095°13'0 0.0
2018-Jun-21 10:00N 29°15' W 095°13'0 0.0
2018-Jun-21 09:30N 29°15' W 095°13'1 1.3
2018-Jun-21 09:00N 29°14' W 095°13'0 0.0
2018-Jun-21 08:30N 29°14' W 095°13'0 0.0
2018-Jun-21 08:00N 29°14' W 095°13'0 0.1
2018-Jun-21 07:30N 29°14' W 095°13'1 1.2
2018-Jun-21 07:00N 29°13' W 095°13'3 5.5
2018-Jun-21 06:30N 29°12' W 095°10'3 5.3
2018-Jun-21 06:00N 29°10' W 095°08'2 4.8
2018-Jun-21 05:30N 29°11' W 095°06'3 5.5
2018-Jun-21 05:00N 29°12' W 095°03'3 5.4
2018-Jun-21 04:30N 29°14' W 095°01'3 5.5
2018-Jun-21 04:00N 29°16' W 094°59'3 5.5
2018-Jun-21 03:30N 29°17' W 094°56'3 5.0
2018-Jun-21 02:59N 29°18' W 094°53'2 4.2
2018-Jun-21 02:30N 29°19' W 094°51'2 4.6
2018-Jun-21 02:00N 29°21' W 094°49'0 0.0
2018-Jun-21 01:30N 29°21' W 094°49'0 0.0
2018-Jun-21 01:00N 29°21' W 094°49'0 0.0
2018-Jun-21 00:30N 29°21' W 094°49'0 0.0
2018-Jun-21 00:00N 29°21' W 094°49'0 0.0
2018-Jun-20 23:30N 29°21' W 094°49'0 0.0
2018-Jun-20 23:00N 29°21' W 094°49'0 0.0
2018-Jun-20 22:30N 29°21' W 094°49'0 0.0
2018-Jun-20 22:00N 29°21' W 094°49'0 0.0
2018-Jun-20 21:30N 29°21' W 094°49'0 0.0
2018-Jun-20 20:58N 29°21' W 094°49'0 0.0
2018-Jun-20 20:30N 29°21' W 094°49'0 0.0
2018-Jun-20 20:00N 29°21' W 094°49'0 0.0
2018-Jun-20 19:30N 29°21' W 094°49'0 0.0
2018-Jun-20 18:57N 29°21' W 094°49'0 0.0
2018-Jun-20 18:29N 29°21' W 094°49'0 0.0
2018-Jun-20 18:00N 29°21' W 094°49'0 0.0
2018-Jun-20 17:28N 29°21' W 094°49'0 0.0
2018-Jun-20 16:57N 29°21' W 094°49'0 0.0
2018-Jun-20 16:30N 29°21' W 094°49'0 0.0
2018-Jun-20 15:59N 29°21' W 094°49'2 3.5
2018-Jun-20 15:24N 29°22' W 094°48'3 6.0
2018-Jun-20 14:54N 29°24' W 094°45'11 0.8
2018-Jun-20 01:12N 29°30' W 094°34'1 5.3
2018-Jun-20 01:00N 29°30' W 094°33'3 5.4
2018-Jun-20 00:28N 29°31' W 094°30'1 1.4
2018-Jun-19 23:26N 29°32' W 094°29'0 0.0
2018-Jun-19 23:00N 29°32' W 094°29'0 0.0
2018-Jun-19 22:30N 29°32' W 094°29'2 2.5
2018-Jun-19 21:48N 29°34' W 094°27'2 6.7
2018-Jun-19 21:30N 29°34' W 094°25'3 5.6
2018-Jun-19 21:00N 29°36' W 094°22'4 7.4
2018-Jun-19 20:30N 29°38' W 094°19'4 7.3
2018-Jun-19 20:00N 29°40' W 094°15'4 7.1
2018-Jun-19 19:30N 29°41' W 094°11'4 7.0
2018-Jun-19 19:00N 29°43' W 094°08'4 7.4
2018-Jun-19 18:30N 29°45' W 094°04'4 7.6
2018-Jun-19 18:00N 29°47' W 094°01'3 6.6
2018-Jun-19 17:30N 29°49' W 093°58'2 4.8
2018-Jun-19 17:00N 29°51' W 093°56'3 6.3
2018-Jun-19 16:30N 29°54' W 093°54'4 7.3
2018-Jun-19 16:00N 29°57' W 093°52'3 6.0
2018-Jun-19 15:30N 29°59' W 093°49'3 5.4
2018-Jun-19 15:00N 29°60' W 093°46'0 0.0
2018-Jun-19 14:30N 29°60' W 093°46'0 0.0
2018-Jun-19 14:00N 29°60' W 093°46'0 0.0
2018-Jun-19 13:30N 29°60' W 093°46'0 0.0
2018-Jun-19 13:00N 29°60' W 093°46'0 0.0
2018-Jun-19 12:30N 29°60' W 093°46'0 0.0
2018-Jun-19 12:00N 29°60' W 093°46'0 0.0
2018-Jun-19 11:30N 29°60' W 093°46'0 0.0
2018-Jun-19 11:00N 29°60' W 093°46'0 0.0
2018-Jun-19 10:30N 29°60' W 093°46'0 0.0
2018-Jun-19 10:00N 29°60' W 093°46'0 0.0
2018-Jun-19 09:30N 29°60' W 093°46'0 0.0
2018-Jun-19 09:00N 29°60' W 093°46'0 0.0
2018-Jun-19 08:30N 29°60' W 093°46'0 0.0
2018-Jun-19 08:00N 29°60' W 093°46'0 0.0
2018-Jun-19 07:30N 29°60' W 093°46'0 0.0
2018-Jun-19 07:00N 29°60' W 093°46'0 0.0
2018-Jun-19 06:30N 29°60' W 093°46'0 0.0
2018-Jun-19 06:00N 29°60' W 093°46'0 0.1
2018-Jun-19 05:30N 29°60' W 093°46'0 0.0
2018-Jun-19 05:00N 29°60' W 093°46'0 0.0
2018-Jun-19 04:30N 29°60' W 093°46'0 0.0
2018-Jun-19 04:01N 29°60' W 093°46'0 0.0
2018-Jun-19 03:30N 29°60' W 093°46'0 0.0
2018-Jun-19 03:01N 29°60' W 093°46'0 0.0
2018-Jun-19 02:31N 29°60' W 093°46'0 0.0
2018-Jun-19 02:00N 29°60' W 093°46'0 0.0
2018-Jun-19 01:31N 29°60' W 093°46'0 0.0
2018-Jun-19 01:00N 29°60' W 093°46'0 0.0
2018-Jun-19 00:30N 29°60' W 093°46'0 0.0
2018-Jun-19 00:00N 29°60' W 093°46'0 0.0
2018-Jun-18 23:30N 29°60' W 093°46'0 0.0
2018-Jun-18 23:00N 29°60' W 093°46'0 0.1
2018-Jun-18 22:30N 29°60' W 093°46'0 0.0
2018-Jun-18 22:00N 29°60' W 093°46'0 0.0
2018-Jun-18 21:30N 29°60' W 093°46'0 0.0
2018-Jun-18 21:00N 29°60' W 093°46'0 0.0
2018-Jun-18 20:30N 29°60' W 093°46'0 0.0
2018-Jun-18 20:00N 29°60' W 093°46'0 0.0
2018-Jun-18 19:31N 29°60' W 093°46'0 0.0
2018-Jun-18 19:00N 29°60' W 093°46'0 0.0
2018-Jun-18 18:30N 29°60' W 093°46'0 0.8
2018-Jun-18 18:00N 30°00' W 093°46'0 0.0
2018-Jun-18 17:30N 30°00' W 093°46'0 0.0
2018-Jun-18 17:00N 30°00' W 093°46'0 0.0
2018-Jun-18 16:30N 30°00' W 093°46'0 0.0
2018-Jun-18 16:01N 30°00' W 093°46'0 0.0
2018-Jun-18 15:30N 30°00' W 093°46'0 0.0
2018-Jun-18 15:00N 30°00' W 093°46'0 0.0
2018-Jun-18 14:31N 30°00' W 093°46'0 0.2
2018-Jun-18 14:00N 30°00' W 093°46'0 0.0
2018-Jun-18 13:30N 30°00' W 093°46'0 0.0
2018-Jun-18 13:00N 30°00' W 093°46'0 0.0
2018-Jun-18 12:30N 30°00' W 093°46'0 0.0
2018-Jun-18 12:00N 30°00' W 093°46'0 0.0
2018-Jun-18 11:30N 30°00' W 093°46'0 0.0
2018-Jun-18 11:00N 30°00' W 093°46'0 0.0
2018-Jun-18 10:30N 30°00' W 093°46'0 0.0
2018-Jun-18 10:00N 30°00' W 093°46'0 0.0
2018-Jun-18 09:30N 30°00' W 093°46'0 0.0
2018-Jun-18 09:00N 30°00' W 093°46'0 0.2
2018-Jun-18 08:30N 30°00' W 093°46'0 0.0
2018-Jun-18 08:00N 30°00' W 093°46'0 0.0
2018-Jun-18 07:30N 30°00' W 093°46'0 0.0
2018-Jun-18 07:00N 30°00' W 093°46'0 0.0
2018-Jun-18 06:30N 30°00' W 093°46'0 0.0
2018-Jun-18 06:00N 30°00' W 093°46'0 0.0
2018-Jun-18 05:30N 30°00' W 093°46'0 0.0
2018-Jun-18 05:00N 30°00' W 093°46'0 0.0
2018-Jun-18 04:30N 30°00' W 093°46'0 0.0
2018-Jun-18 04:00N 30°00' W 093°46'0 0.0
2018-Jun-18 03:30N 30°00' W 093°46'0 0.0
2018-Jun-18 03:00N 30°00' W 093°46'0 0.0
2018-Jun-18 02:30N 30°00' W 093°46'0 0.0
2018-Jun-18 02:00N 30°00' W 093°46'0 0.0
2018-Jun-18 01:30N 30°00' W 093°46'0 0.0
2018-Jun-18 01:00N 30°00' W 093°46'0 0.0
2018-Jun-18 00:30N 30°00' W 093°46'0 0.0
2018-Jun-18 00:00N 30°00' W 093°46'0 0.0
2018-Jun-17 23:30N 30°00' W 093°46'0 0.0
2018-Jun-17 23:00N 30°00' W 093°46'0 0.0
2018-Jun-17 22:30N 30°00' W 093°46'0 0.0
2018-Jun-17 22:00N 30°00' W 093°46'0 0.0
2018-Jun-17 21:30N 30°00' W 093°46'0 0.0
2018-Jun-17 21:00N 30°00' W 093°46'0 0.0
2018-Jun-17 20:31N 30°00' W 093°46'0 0.0
2018-Jun-17 20:00N 30°00' W 093°46'0 0.0
2018-Jun-17 19:30N 30°00' W 093°46'2 5.0
2018-Jun-17 19:00N 30°02' W 093°44'1 1.3
2018-Jun-17 18:30N 30°03' W 093°44'0 0.5
2018-Jun-17 18:00N 30°03' W 093°44'3 6.4
2018-Jun-17 17:30N 30°04' W 093°40'3 6.8
2018-Jun-17 17:00N 30°04' W 093°36'3 6.6
2018-Jun-17 16:30N 30°04' W 093°32'3 5.9
2018-Jun-17 16:00N 30°04' W 093°29'2 4.8
2018-Jun-17 15:30N 30°04' W 093°26'2 4.7
2018-Jun-17 15:00N 30°04' W 093°24'3 5.1
2018-Jun-17 14:30N 30°04' W 093°21'2 4.2
2018-Jun-17 14:00N 30°06' W 093°19'2 3.1
2018-Jun-17 13:30N 30°05' W 093°18'2 3.2
2018-Jun-17 13:00N 30°04' W 093°16'2 3.2
2018-Jun-17 12:30N 30°03' W 093°16'0 0.0
2018-Jun-17 12:00N 30°03' W 093°16'0 0.0
2018-Jun-17 11:30N 30°03' W 093°16'0 0.0
2018-Jun-17 11:00N 30°03' W 093°16'0 0.0
2018-Jun-17 10:30N 30°03' W 093°16'0 0.0
2018-Jun-17 10:00N 30°03' W 093°16'0 0.0
2018-Jun-17 09:30N 30°03' W 093°16'0 0.0
2018-Jun-17 09:00N 30°03' W 093°16'0 0.0
2018-Jun-17 08:30N 30°03' W 093°16'0 0.0
2018-Jun-17 08:00N 30°03' W 093°16'0 0.0
2018-Jun-17 07:30N 30°03' W 093°16'0 0.0
2018-Jun-17 07:00N 30°03' W 093°16'0 0.4
2018-Jun-17 06:30N 30°02' W 093°16'2 3.2
2018-Jun-17 06:00N 30°01' W 093°14'2 4.6
2018-Jun-17 05:30N 29°59' W 093°13'0 0.9
2018-Jun-17 05:00N 29°59' W 093°13'0 0.0
2018-Jun-17 04:30N 29°59' W 093°13'0 0.0
2018-Jun-17 03:59N 29°59' W 093°13'0 0.0
2018-Jun-17 03:29N 29°59' W 093°13'0 0.0
2018-Jun-17 03:00N 29°59' W 093°13'0 0.0
2018-Jun-17 02:30N 29°59' W 093°13'0 0.0
2018-Jun-17 02:00N 29°59' W 093°13'0 0.0
2018-Jun-17 01:30N 29°59' W 093°13'0 0.0
2018-Jun-17 01:00N 29°59' W 093°13'0 0.0
2018-Jun-17 00:30N 29°59' W 093°13'0 0.0
2018-Jun-17 00:00N 29°59' W 093°13'0 0.0
2018-Jun-16 23:30N 29°59' W 093°13'0 0.0
2018-Jun-16 23:00N 29°59' W 093°13'0 0.0
2018-Jun-16 22:30N 29°59' W 093°13'1 1.9
2018-Jun-16 22:00N 29°58' W 093°12'3 5.5
2018-Jun-16 21:30N 29°56' W 093°10'3 5.5
2018-Jun-16 21:00N 29°56' W 093°07'3 4.6
2018-Jun-16 20:26N 29°56' W 093°04'0 0.0
2018-Jun-16 20:00N 29°56' W 093°04'0 0.7
2018-Jun-16 19:29N 29°56' W 093°03'32 5.6
2018-Jun-16 13:53N 29°54' W 092°27'2 5.4
2018-Jun-16 13:29N 29°53' W 092°24'2 5.1
2018-Jun-16 13:00N 29°52' W 092°22'2 4.7
2018-Jun-16 12:30N 29°51' W 092°20'3 5.0
2018-Jun-16 12:00N 29°49' W 092°17'3 5.2
2018-Jun-16 11:30N 29°48' W 092°15'2 4.4
2018-Jun-16 11:00N 29°47' W 092°12'0 0.9
2018-Jun-16 10:30N 29°47' W 092°12'1 2.5
2018-Jun-16 10:00N 29°47' W 092°11'3 5.5
2018-Jun-16 09:29N 29°47' W 092°07'3 6.2
2018-Jun-16 09:00N 29°48' W 092°04'3 5.8
2018-Jun-16 08:30N 29°49' W 092°01'3 5.6
2018-Jun-16 08:00N 29°50' W 091°58'3 4.8
2018-Jun-16 07:28N 29°51' W 091°55'5 4.3
2018-Jun-16 06:16N 29°49' W 091°49'  
Track history (hours):
 
Tides and Currents Weather Stations Pressure Air Temp Water Temp Dewpoint Dewpoint Depression Visibility Wind Speed Wind Dir Waves Ship Positions

Red River

Owner: Higman Barge Lines, Inc, Orange, TX. More information available from US FCC via Universal Licensing System and Coast Guard Vessel Documentation Center.

Last reported at 2018-Jun-25 04:00 UTC. Time now 2018-Jun-25 04:26 UTC.
Position N 29°48' W 092°15'.

Length 115 m; draft 2.6 m.

Type: Towing. MMSI: 367576750.

Date/timePositionNaut miles runAvg speedWind from/ knotsBaromVisibWave heightAir tempDewpointWater temp
2018-Jun-25 04:00N 29°48' W 092°15'0 0.0
2018-Jun-25 03:30N 29°48' W 092°15'0 0.0
2018-Jun-25 03:00N 29°48' W 092°15'0 0.0
2018-Jun-25 02:30N 29°48' W 092°15'0 0.5
2018-Jun-25 02:00N 29°48' W 092°15'2 3.3
2018-Jun-25 01:30N 29°49' W 092°17'2 3.5
2018-Jun-25 01:00N 29°50' W 092°19'1 1.8
2018-Jun-25 00:25N 29°50' W 092°20'37 4.6
2018-Jun-24 16:18N 29°56' W 093°02'2 4.9
2018-Jun-24 15:59N 29°56' W 093°04'2 3.6
2018-Jun-24 15:30N 29°56' W 093°06'2 3.4
2018-Jun-24 15:00N 29°56' W 093°08'2 4.1
2018-Jun-24 14:30N 29°57' W 093°10'2 4.3
2018-Jun-24 14:00N 29°59' W 093°12'2 4.1
2018-Jun-24 13:30N 30°00' W 093°14'2 3.6
2018-Jun-24 13:00N 30°02' W 093°14'2 3.1
2018-Jun-24 12:30N 30°03' W 093°16'2 3.6
2018-Jun-24 12:00N 30°04' W 093°16'1 2.7
2018-Jun-24 11:30N 30°05' W 093°18'1 1.9
2018-Jun-24 11:00N 30°06' W 093°18'0 0.8
2018-Jun-24 10:30N 30°06' W 093°19'0 0.2
2018-Jun-24 10:00N 30°06' W 093°19'0 0.0
2018-Jun-24 09:30N 30°06' W 093°19'0 0.0
2018-Jun-24 09:00N 30°06' W 093°19'0 0.0
2018-Jun-24 08:30N 30°06' W 093°19'0 0.0
2018-Jun-24 08:00N 30°06' W 093°19'0 0.0
2018-Jun-24 07:30N 30°06' W 093°19'0 0.0
2018-Jun-24 07:00N 30°06' W 093°19'0 0.0
2018-Jun-24 06:30N 30°06' W 093°19'0 0.2
2018-Jun-24 06:00N 30°06' W 093°19'1 2.8
2018-Jun-24 05:30N 30°05' W 093°20'2 4.1
2018-Jun-24 05:00N 30°04' W 093°21'2 3.0
2018-Jun-24 04:30N 30°04' W 093°23'0 0.0
2018-Jun-24 04:00N 30°04' W 093°23'0 0.0
2018-Jun-24 03:30N 30°04' W 093°23'0 0.0
2018-Jun-24 03:00N 30°04' W 093°23'0 0.0
2018-Jun-24 02:30N 30°04' W 093°23'0 0.0
2018-Jun-24 02:00N 30°04' W 093°23'0 0.0
2018-Jun-24 01:30N 30°04' W 093°23'0 0.0
2018-Jun-24 01:00N 30°04' W 093°23'0 0.0
2018-Jun-24 00:30N 30°04' W 093°23'0 0.0
2018-Jun-23 23:58N 30°04' W 093°23'0 0.0
2018-Jun-23 23:30N 30°04' W 093°23'0 0.0
2018-Jun-23 23:00N 30°04' W 093°23'0 0.0
2018-Jun-23 22:30N 30°04' W 093°23'0 0.0
2018-Jun-23 22:00N 30°04' W 093°23'0 0.0
2018-Jun-23 21:30N 30°04' W 093°23'1 2.8
2018-Jun-23 21:00N 30°04' W 093°25'0 0.2
2018-Jun-23 20:30N 30°04' W 093°25'0 0.0
2018-Jun-23 19:57N 30°04' W 093°25'0 0.0
2018-Jun-23 19:30N 30°04' W 093°25'0 0.0
2018-Jun-23 19:00N 30°04' W 093°25'0 0.0
2018-Jun-23 18:30N 30°04' W 093°25'0 0.0
2018-Jun-23 18:00N 30°04' W 093°25'0 0.0
2018-Jun-23 17:30N 30°04' W 093°25'0 0.0
2018-Jun-23 17:00N 30°04' W 093°25'0 0.0
2018-Jun-23 16:30N 30°04' W 093°25'0 0.0
2018-Jun-23 15:59N 30°04' W 093°25'0 0.0
2018-Jun-23 15:30N 30°04' W 093°25'0 0.0
2018-Jun-23 15:00N 30°04' W 093°25'0 0.1
2018-Jun-23 14:30N 30°04' W 093°25'2 3.2
2018-Jun-23 14:00N 30°04' W 093°27'0 0.7
2018-Jun-23 13:30N 30°04' W 093°27'2 4.1
2018-Jun-23 13:00N 30°04' W 093°30'3 5.2
2018-Jun-23 12:30N 30°04' W 093°33'3 5.3
2018-Jun-23 12:00N 30°04' W 093°36'3 5.7
2018-Jun-23 11:30N 30°04' W 093°39'3 5.8
2018-Jun-23 11:00N 30°03' W 093°42'1 2.3
2018-Jun-23 10:30N 30°03' W 093°44'1 1.3
2018-Jun-23 10:00N 30°02' W 093°44'3 5.2
2018-Jun-23 09:30N 30°00' W 093°46'3 6.3
2018-Jun-23 09:00N 29°59' W 093°49'3 5.0
2018-Jun-23 08:30N 29°57' W 093°52'4 7.1
2018-Jun-23 08:00N 29°54' W 093°54'4 7.0
2018-Jun-23 07:30N 29°52' W 093°56'3 6.0
2018-Jun-23 07:00N 29°49' W 093°58'2 4.5
2018-Jun-23 06:30N 29°48' W 094°00'3 5.3
2018-Jun-23 06:00N 29°46' W 094°03'3 5.2
2018-Jun-23 05:30N 29°45' W 094°05'3 5.5
2018-Jun-23 05:00N 29°43' W 094°07'3 5.3
2018-Jun-23 04:29N 29°41' W 094°10'2 5.2
2018-Jun-23 04:00N 29°40' W 094°13'3 5.0
2018-Jun-23 03:30N 29°39' W 094°15'3 5.0
2018-Jun-23 03:00N 29°38' W 094°18'2 4.9
2018-Jun-23 02:30N 29°37' W 094°20'2 4.8
2018-Jun-23 02:00N 29°36' W 094°23'2 3.9
2018-Jun-23 01:30N 29°35' W 094°25'2 3.5
2018-Jun-23 01:00N 29°34' W 094°26'2 4.1
2018-Jun-23 00:29N 29°33' W 094°28'2 4.5
2018-Jun-22 23:56N 29°31' W 094°31'13 5.0
2018-Jun-22 21:15N 29°25' W 094°44'2 4.5
2018-Jun-22 20:53N 29°24' W 094°46'3 6.0
2018-Jun-22 20:28N 29°22' W 094°48'3 7.1
2018-Jun-22 20:00N 29°20' W 094°51'3 6.6
2018-Jun-22 19:30N 29°18' W 094°53'3 5.5
2018-Jun-22 19:00N 29°17' W 094°56'3 5.6
2018-Jun-22 18:30N 29°16' W 094°59'3 5.8
2018-Jun-22 18:00N 29°14' W 095°02'3 5.5
2018-Jun-22 17:30N 29°12' W 095°04'3 5.7
2018-Jun-22 17:00N 29°10' W 095°07'2 3.3
2018-Jun-22 16:30N 29°11' W 095°08'2 4.3
2018-Jun-22 16:00N 29°12' W 095°10'2 3.5
2018-Jun-22 15:30N 29°13' W 095°12'0 1.0
2018-Jun-22 15:00N 29°13' W 095°13'1 1.5
2018-Jun-22 14:30N 29°14' W 095°13'1 1.8
2018-Jun-22 14:00N 29°15' W 095°13'0 0.1
2018-Jun-22 13:29N 29°14' W 095°13'0 0.1
2018-Jun-22 13:00N 29°14' W 095°13'1 1.2
2018-Jun-22 12:30N 29°14' W 095°13'1 1.6
2018-Jun-22 12:00N 29°15' W 095°13'0 0.1
2018-Jun-22 11:30N 29°15' W 095°13'0 0.0
2018-Jun-22 11:00N 29°15' W 095°13'0 0.0
2018-Jun-22 10:30N 29°15' W 095°13'0 0.0
2018-Jun-22 10:00N 29°15' W 095°13'0 0.0
2018-Jun-22 09:29N 29°15' W 095°13'0 0.0
2018-Jun-22 09:00N 29°15' W 095°13'0 0.0
2018-Jun-22 08:30N 29°15' W 095°13'0 0.0
2018-Jun-22 08:00N 29°15' W 095°13'0 0.0
2018-Jun-22 07:30N 29°15' W 095°13'0 0.0
2018-Jun-22 07:00N 29°15' W 095°13'0 0.0
2018-Jun-22 06:30N 29°15' W 095°13'0 0.0
2018-Jun-22 06:00N 29°15' W 095°13'0 0.0
2018-Jun-22 05:30N 29°15' W 095°13'0 0.0
2018-Jun-22 05:00N 29°15' W 095°13'0 0.2
2018-Jun-22 04:30N 29°15' W 095°13'0 0.0
2018-Jun-22 03:59N 29°15' W 095°13'0 0.0
2018-Jun-22 03:30N 29°15' W 095°13'0 0.0
2018-Jun-22 03:00N 29°15' W 095°13'0 0.0
2018-Jun-22 02:30N 29°15' W 095°13'0 0.0
2018-Jun-22 02:00N 29°15' W 095°13'0 0.0
2018-Jun-22 01:30N 29°15' W 095°13'0 0.0
2018-Jun-22 01:00N 29°15' W 095°13'0 0.0
2018-Jun-22 00:30N 29°15' W 095°13'0 0.0
2018-Jun-22 00:00N 29°15' W 095°13'0 0.0
2018-Jun-21 23:30N 29°15' W 095°13'0 0.0
2018-Jun-21 23:00N 29°15' W 095°13'0 0.0
2018-Jun-21 22:30N 29°15' W 095°13'0 0.0
2018-Jun-21 22:00N 29°15' W 095°13'0 0.0
2018-Jun-21 21:30N 29°15' W 095°13'0 0.0
2018-Jun-21 21:00N 29°15' W 095°13'1 1.0
2018-Jun-21 20:30N 29°14' W 095°13'0 0.8
2018-Jun-21 20:00N 29°14' W 095°13'0 0.4
2018-Jun-21 19:31N 29°15' W 095°13'0 0.0
2018-Jun-21 19:00N 29°15' W 095°13'0 0.0
2018-Jun-21 18:30N 29°15' W 095°13'0 0.0
2018-Jun-21 18:00N 29°15' W 095°13'0 0.0
2018-Jun-21 17:30N 29°15' W 095°13'0 0.0
2018-Jun-21 16:59N 29°15' W 095°13'0 0.0
2018-Jun-21 16:30N 29°15' W 095°13'0 0.0
2018-Jun-21 16:00N 29°15' W 095°13'0 0.0
2018-Jun-21 15:30N 29°15' W 095°13'0 0.0
2018-Jun-21 15:00N 29°15' W 095°13'0 0.0
2018-Jun-21 14:30N 29°15' W 095°13'0 0.0
2018-Jun-21 14:00N 29°15' W 095°13'0 0.0
2018-Jun-21 13:30N 29°15' W 095°13'0 0.0
2018-Jun-21 13:00N 29°15' W 095°13'0 0.0
2018-Jun-21 12:30N 29°15' W 095°13'0 0.0
2018-Jun-21 12:00N 29°15' W 095°13'0 0.2
2018-Jun-21 11:30N 29°15' W 095°13'0 0.0
2018-Jun-21 11:00N 29°15' W 095°13'0 0.0
2018-Jun-21 10:28N 29°15' W 095°13'0 0.0
2018-Jun-21 10:00N 29°15' W 095°13'0 0.0
2018-Jun-21 09:30N 29°15' W 095°13'1 1.3
2018-Jun-21 09:00N 29°14' W 095°13'0 0.0
2018-Jun-21 08:30N 29°14' W 095°13'0 0.0
2018-Jun-21 08:00N 29°14' W 095°13'0 0.1
2018-Jun-21 07:30N 29°14' W 095°13'1 1.2
2018-Jun-21 07:00N 29°13' W 095°13'3 5.5
2018-Jun-21 06:30N 29°12' W 095°10'3 5.3
2018-Jun-21 06:00N 29°10' W 095°08'2 4.8
2018-Jun-21 05:30N 29°11' W 095°06'3 5.5
2018-Jun-21 05:00N 29°12' W 095°03'3 5.4
2018-Jun-21 04:30N 29°14' W 095°01'3 5.5
2018-Jun-21 04:00N 29°16' W 094°59'3 5.5
2018-Jun-21 03:30N 29°17' W 094°56'3 5.0
2018-Jun-21 02:59N 29°18' W 094°53'2 4.2
2018-Jun-21 02:30N 29°19' W 094°51'2 4.6
2018-Jun-21 02:00N 29°21' W 094°49'0 0.0
2018-Jun-21 01:30N 29°21' W 094°49'0 0.0
2018-Jun-21 01:00N 29°21' W 094°49'0 0.0
2018-Jun-21 00:30N 29°21' W 094°49'0 0.0
2018-Jun-21 00:00N 29°21' W 094°49'0 0.0
2018-Jun-20 23:30N 29°21' W 094°49'0 0.0
2018-Jun-20 23:00N 29°21' W 094°49'0 0.0
2018-Jun-20 22:30N 29°21' W 094°49'0 0.0
2018-Jun-20 22:00N 29°21' W 094°49'0 0.0
2018-Jun-20 21:30N 29°21' W 094°49'0 0.0
2018-Jun-20 20:58N 29°21' W 094°49'0 0.0
2018-Jun-20 20:30N 29°21' W 094°49'0 0.0
2018-Jun-20 20:00N 29°21' W 094°49'0 0.0
2018-Jun-20 19:30N 29°21' W 094°49'0 0.0
2018-Jun-20 18:57N 29°21' W 094°49'0 0.0
2018-Jun-20 18:29N 29°21' W 094°49'0 0.0
2018-Jun-20 18:00N 29°21' W 094°49'0 0.0
2018-Jun-20 17:28N 29°21' W 094°49'0 0.0
2018-Jun-20 16:57N 29°21' W 094°49'0 0.0
2018-Jun-20 16:30N 29°21' W 094°49'0 0.0
2018-Jun-20 15:59N 29°21' W 094°49'2 3.5
2018-Jun-20 15:24N 29°22' W 094°48'3 6.0
2018-Jun-20 14:54N 29°24' W 094°45'11 0.8
2018-Jun-20 01:12N 29°30' W 094°34'1 5.3
2018-Jun-20 01:00N 29°30' W 094°33'3 5.4
2018-Jun-20 00:28N 29°31' W 094°30'1 1.4
2018-Jun-19 23:26N 29°32' W 094°29'0 0.0
2018-Jun-19 23:00N 29°32' W 094°29'0 0.0
2018-Jun-19 22:30N 29°32' W 094°29'2 2.5
2018-Jun-19 21:48N 29°34' W 094°27'2 6.7
2018-Jun-19 21:30N 29°34' W 094°25'3 5.6
2018-Jun-19 21:00N 29°36' W 094°22'4 7.4
2018-Jun-19 20:30N 29°38' W 094°19'4 7.3
2018-Jun-19 20:00N 29°40' W 094°15'4 7.1
2018-Jun-19 19:30N 29°41' W 094°11'4 7.0
2018-Jun-19 19:00N 29°43' W 094°08'4 7.4
2018-Jun-19 18:30N 29°45' W 094°04'4 7.6
2018-Jun-19 18:00N 29°47' W 094°01'3 6.6
2018-Jun-19 17:30N 29°49' W 093°58'2 4.8
2018-Jun-19 17:00N 29°51' W 093°56'3 6.3
2018-Jun-19 16:30N 29°54' W 093°54'4 7.3
2018-Jun-19 16:00N 29°57' W 093°52'3 6.0
2018-Jun-19 15:30N 29°59' W 093°49'3 5.4
2018-Jun-19 15:00N 29°60' W 093°46'0 0.0
2018-Jun-19 14:30N 29°60' W 093°46'0 0.0
2018-Jun-19 14:00N 29°60' W 093°46'0 0.0
2018-Jun-19 13:30N 29°60' W 093°46'0 0.0
2018-Jun-19 13:00N 29°60' W 093°46'0 0.0
2018-Jun-19 12:30N 29°60' W 093°46'0 0.0
2018-Jun-19 12:00N 29°60' W 093°46'0 0.0
2018-Jun-19 11:30N 29°60' W 093°46'0 0.0
2018-Jun-19 11:00N 29°60' W 093°46'0 0.0
2018-Jun-19 10:30N 29°60' W 093°46'0 0.0
2018-Jun-19 10:00N 29°60' W 093°46'0 0.0
2018-Jun-19 09:30N 29°60' W 093°46'0 0.0
2018-Jun-19 09:00N 29°60' W 093°46'0 0.0
2018-Jun-19 08:30N 29°60' W 093°46'0 0.0
2018-Jun-19 08:00N 29°60' W 093°46'0 0.0
2018-Jun-19 07:30N 29°60' W 093°46'0 0.0
2018-Jun-19 07:00N 29°60' W 093°46'0 0.0
2018-Jun-19 06:30N 29°60' W 093°46'0 0.0
2018-Jun-19 06:00N 29°60' W 093°46'0 0.1
2018-Jun-19 05:30N 29°60' W 093°46'0 0.0
2018-Jun-19 05:00N 29°60' W 093°46'0 0.0
2018-Jun-19 04:30N 29°60' W 093°46'0 0.0
2018-Jun-19 04:01N 29°60' W 093°46'0 0.0
2018-Jun-19 03:30N 29°60' W 093°46'0 0.0
2018-Jun-19 03:01N 29°60' W 093°46'0 0.0
2018-Jun-19 02:31N 29°60' W 093°46'0 0.0
2018-Jun-19 02:00N 29°60' W 093°46'0 0.0
2018-Jun-19 01:31N 29°60' W 093°46'0 0.0
2018-Jun-19 01:00N 29°60' W 093°46'0 0.0
2018-Jun-19 00:30N 29°60' W 093°46'0 0.0
2018-Jun-19 00:00N 29°60' W 093°46'0 0.0
2018-Jun-18 23:30N 29°60' W 093°46'0 0.0
2018-Jun-18 23:00N 29°60' W 093°46'0 0.1
2018-Jun-18 22:30N 29°60' W 093°46'0 0.0
2018-Jun-18 22:00N 29°60' W 093°46'0 0.0
2018-Jun-18 21:30N 29°60' W 093°46'0 0.0
2018-Jun-18 21:00N 29°60' W 093°46'0 0.0
2018-Jun-18 20:30N 29°60' W 093°46'0 0.0
2018-Jun-18 20:00N 29°60' W 093°46'0 0.0
2018-Jun-18 19:31N 29°60' W 093°46'0 0.0
2018-Jun-18 19:00N 29°60' W 093°46'0 0.0
2018-Jun-18 18:30N 29°60' W 093°46'0 0.8
2018-Jun-18 18:00N 30°00' W 093°46'0 0.0
2018-Jun-18 17:30N 30°00' W 093°46'0 0.0
2018-Jun-18 17:00N 30°00' W 093°46'0 0.0
2018-Jun-18 16:30N 30°00' W 093°46'0 0.0
2018-Jun-18 16:01N 30°00' W 093°46'0 0.0
2018-Jun-18 15:30N 30°00' W 093°46'0 0.0
2018-Jun-18 15:00N 30°00' W 093°46'0 0.0
2018-Jun-18 14:31N 30°00' W 093°46'0 0.2
2018-Jun-18 14:00N 30°00' W 093°46'0 0.0
2018-Jun-18 13:30N 30°00' W 093°46'0 0.0
2018-Jun-18 13:00N 30°00' W 093°46'0 0.0
2018-Jun-18 12:30N 30°00' W 093°46'0 0.0
2018-Jun-18 12:00N 30°00' W 093°46'0 0.0
2018-Jun-18 11:30N 30°00' W 093°46'0 0.0
2018-Jun-18 11:00N 30°00' W 093°46'0 0.0
2018-Jun-18 10:30N 30°00' W 093°46'0 0.0
2018-Jun-18 10:00N 30°00' W 093°46'0 0.0
2018-Jun-18 09:30N 30°00' W 093°46'0 0.0
2018-Jun-18 09:00N 30°00' W 093°46'0 0.2
2018-Jun-18 08:30N 30°00' W 093°46'0 0.0
2018-Jun-18 08:00N 30°00' W 093°46'0 0.0
2018-Jun-18 07:30N 30°00' W 093°46'0 0.0
2018-Jun-18 07:00N 30°00' W 093°46'0 0.0
2018-Jun-18 06:30N 30°00' W 093°46'0 0.0
2018-Jun-18 06:00N 30°00' W 093°46'0 0.0
2018-Jun-18 05:30N 30°00' W 093°46'0 0.0
2018-Jun-18 05:00N 30°00' W 093°46'0 0.0
2018-Jun-18 04:30N 30°00' W 093°46'0 0.0
2018-Jun-18 04:00N 30°00' W 093°46'0 0.0
2018-Jun-18 03:30N 30°00' W 093°46'0 0.0
2018-Jun-18 03:00N 30°00' W 093°46'0 0.0
2018-Jun-18 02:30N 30°00' W 093°46'0 0.0
2018-Jun-18 02:00N 30°00' W 093°46'0 0.0
2018-Jun-18 01:30N 30°00' W 093°46'0 0.0
2018-Jun-18 01:00N 30°00' W 093°46'0 0.0
2018-Jun-18 00:30N 30°00' W 093°46'0 0.0
2018-Jun-18 00:00N 30°00' W 093°46'0 0.0
2018-Jun-17 23:30N 30°00' W 093°46'0 0.0
2018-Jun-17 23:00N 30°00' W 093°46'0 0.0
2018-Jun-17 22:30N 30°00' W 093°46'0 0.0
2018-Jun-17 22:00N 30°00' W 093°46'0 0.0
2018-Jun-17 21:30N 30°00' W 093°46'0 0.0
2018-Jun-17 21:00N 30°00' W 093°46'0 0.0
2018-Jun-17 20:31N 30°00' W 093°46'0 0.0
2018-Jun-17 20:00N 30°00' W 093°46'0 0.0
2018-Jun-17 19:30N 30°00' W 093°46'2 5.0
2018-Jun-17 19:00N 30°02' W 093°44'1 1.3
2018-Jun-17 18:30N 30°03' W 093°44'0 0.5
2018-Jun-17 18:00N 30°03' W 093°44'3 6.4
2018-Jun-17 17:30N 30°04' W 093°40'3 6.8
2018-Jun-17 17:00N 30°04' W 093°36'3 6.6
2018-Jun-17 16:30N 30°04' W 093°32'3 5.9
2018-Jun-17 16:00N 30°04' W 093°29'2 4.8
2018-Jun-17 15:30N 30°04' W 093°26'2 4.7
2018-Jun-17 15:00N 30°04' W 093°24'3 5.1
2018-Jun-17 14:30N 30°04' W 093°21'2 4.2
2018-Jun-17 14:00N 30°06' W 093°19'2 3.1
2018-Jun-17 13:30N 30°05' W 093°18'2 3.2
2018-Jun-17 13:00N 30°04' W 093°16'2 3.2
2018-Jun-17 12:30N 30°03' W 093°16'0 0.0
2018-Jun-17 12:00N 30°03' W 093°16'0 0.0
2018-Jun-17 11:30N 30°03' W 093°16'0 0.0
2018-Jun-17 11:00N 30°03' W 093°16'0 0.0
2018-Jun-17 10:30N 30°03' W 093°16'0 0.0
2018-Jun-17 10:00N 30°03' W 093°16'0 0.0
2018-Jun-17 09:30N 30°03' W 093°16'0 0.0
2018-Jun-17 09:00N 30°03' W 093°16'0 0.0
2018-Jun-17 08:30N 30°03' W 093°16'0 0.0
2018-Jun-17 08:00N 30°03' W 093°16'0 0.0
2018-Jun-17 07:30N 30°03' W 093°16'0 0.0
2018-Jun-17 07:00N 30°03' W 093°16'0 0.4
2018-Jun-17 06:30N 30°02' W 093°16'2 3.2
2018-Jun-17 06:00N 30°01' W 093°14'2 4.6
2018-Jun-17 05:30N 29°59' W 093°13'0 0.9
2018-Jun-17 05:00N 29°59' W 093°13'0 0.0
2018-Jun-17 04:30N 29°59' W 093°13'0 0.0
2018-Jun-17 03:59N 29°59' W 093°13'0 0.0
2018-Jun-17 03:29N 29°59' W 093°13'0 0.0
2018-Jun-17 03:00N 29°59' W 093°13'0 0.0
2018-Jun-17 02:30N 29°59' W 093°13'0 0.0
2018-Jun-17 02:00N 29°59' W 093°13'0 0.0
2018-Jun-17 01:30N 29°59' W 093°13'0 0.0
2018-Jun-17 01:00N 29°59' W 093°13'0 0.0
2018-Jun-17 00:30N 29°59' W 093°13'0 0.0
2018-Jun-17 00:00N 29°59' W 093°13'0 0.0
2018-Jun-16 23:30N 29°59' W 093°13'0 0.0
2018-Jun-16 23:00N 29°59' W 093°13'0 0.0
2018-Jun-16 22:30N 29°59' W 093°13'1 1.9
2018-Jun-16 22:00N 29°58' W 093°12'3 5.5
2018-Jun-16 21:30N 29°56' W 093°10'3 5.5
2018-Jun-16 21:00N 29°56' W 093°07'3 4.6
2018-Jun-16 20:26N 29°56' W 093°04'0 0.0
2018-Jun-16 20:00N 29°56' W 093°04'0 0.7
2018-Jun-16 19:29N 29°56' W 093°03'32 5.6
2018-Jun-16 13:53N 29°54' W 092°27'2 5.4
2018-Jun-16 13:29N 29°53' W 092°24'2 5.1
2018-Jun-16 13:00N 29°52' W 092°22'2 4.7
2018-Jun-16 12:30N 29°51' W 092°20'3 5.0
2018-Jun-16 12:00N 29°49' W 092°17'3 5.2
2018-Jun-16 11:30N 29°48' W 092°15'2 4.4
2018-Jun-16 11:00N 29°47' W 092°12'0 0.9
2018-Jun-16 10:30N 29°47' W 092°12'1 2.5
2018-Jun-16 10:00N 29°47' W 092°11'3 5.5
2018-Jun-16 09:29N 29°47' W 092°07'3 6.2
2018-Jun-16 09:00N 29°48' W 092°04'3 5.8
2018-Jun-16 08:30N 29°49' W 092°01'3 5.6
2018-Jun-16 08:00N 29°50' W 091°58'3 4.8
2018-Jun-16 07:28N 29°51' W 091°55'5 4.3
2018-Jun-16 06:16N 29°49' W 091°49'  

Dump ship's entire track history